sensor_id;sensor_type;location;lat;lon;timestamp;P1;durP1;ratioP1;P2;durP2;ratioP2
16401;SDS011;8310;44.626;11.176;2023-03-03T00:00:57;49.42;;;30.42;;
16401;SDS011;8310;44.626;11.176;2023-03-03T00:03:25;44.55;;;29.50;;
16401;SDS011;8310;44.626;11.176;2023-03-03T00:05:53;43.58;;;28.42;;
16401;SDS011;8310;44.626;11.176;2023-03-03T00:08:21;42.42;;;27.95;;
16401;SDS011;8310;44.626;11.176;2023-03-03T00:10:48;42.15;;;26.55;;
16401;SDS011;8310;44.626;11.176;2023-03-03T00:13:16;43.17;;;27.70;;
16401;SDS011;8310;44.626;11.176;2023-03-03T00:15:47;43.17;;;27.33;;
16401;SDS011;8310;44.626;11.176;2023-03-03T00:18:21;46.10;;;29.02;;
16401;SDS011;8310;44.626;11.176;2023-03-03T00:20:52;43.75;;;27.67;;
16401;SDS011;8310;44.626;11.176;2023-03-03T00:23:23;39.35;;;27.98;;
16401;SDS011;8310;44.626;11.176;2023-03-03T00:25:56;45.80;;;30.15;;
16401;SDS011;8310;44.626;11.176;2023-03-03T00:28:26;43.35;;;29.75;;
16401;SDS011;8310;44.626;11.176;2023-03-03T00:30:57;43.92;;;28.63;;
16401;SDS011;8310;44.626;11.176;2023-03-03T00:33:28;40.38;;;27.40;;
16401;SDS011;8310;44.626;11.176;2023-03-03T00:35:58;44.15;;;28.95;;
16401;SDS011;8310;44.626;11.176;2023-03-03T00:38:47;42.58;;;26.63;;
16401;SDS011;8310;44.626;11.176;2023-03-03T00:41:15;41.40;;;28.17;;
16401;SDS011;8310;44.626;11.176;2023-03-03T00:43:46;40.30;;;26.65;;
16401;SDS011;8310;44.626;11.176;2023-03-03T00:46:16;40.10;;;27.45;;
16401;SDS011;8310;44.626;11.176;2023-03-03T00:48:45;37.88;;;25.88;;
16401;SDS011;8310;44.626;11.176;2023-03-03T00:51:19;38.75;;;26.08;;
16401;SDS011;8310;44.626;11.176;2023-03-03T00:53:53;39.05;;;27.35;;
16401;SDS011;8310;44.626;11.176;2023-03-03T00:56:20;38.38;;;26.17;;
16401;SDS011;8310;44.626;11.176;2023-03-03T00:58:48;39.78;;;25.58;;
16401;SDS011;8310;44.626;11.176;2023-03-03T01:01:19;40.75;;;25.88;;
16401;SDS011;8310;44.626;11.176;2023-03-03T01:03:46;39.45;;;25.20;;
16401;SDS011;8310;44.626;11.176;2023-03-03T01:06:14;37.97;;;25.67;;
16401;SDS011;8310;44.626;11.176;2023-03-03T01:08:41;36.58;;;24.02;;
16401;SDS011;8310;44.626;11.176;2023-03-03T01:11:10;35.53;;;23.60;;
16401;SDS011;8310;44.626;11.176;2023-03-03T01:13:42;37.45;;;23.75;;
16401;SDS011;8310;44.626;11.176;2023-03-03T01:16:12;38.35;;;24.38;;
16401;SDS011;8310;44.626;11.176;2023-03-03T01:18:41;37.03;;;24.27;;
16401;SDS011;8310;44.626;11.176;2023-03-03T01:21:09;42.47;;;26.23;;
16401;SDS011;8310;44.626;11.176;2023-03-03T01:23:37;39.67;;;25.73;;
16401;SDS011;8310;44.626;11.176;2023-03-03T01:26:05;38.75;;;26.02;;
16401;SDS011;8310;44.626;11.176;2023-03-03T01:28:33;36.72;;;25.15;;
16401;SDS011;8310;44.626;11.176;2023-03-03T01:31:02;36.08;;;25.27;;
16401;SDS011;8310;44.626;11.176;2023-03-03T01:33:31;39.72;;;26.08;;
16401;SDS011;8310;44.626;11.176;2023-03-03T01:36:02;38.45;;;25.50;;
16401;SDS011;8310;44.626;11.176;2023-03-03T01:38:30;40.30;;;26.70;;
16401;SDS011;8310;44.626;11.176;2023-03-03T01:40:58;38.70;;;24.52;;
16401;SDS011;8310;44.626;11.176;2023-03-03T01:43:27;37.55;;;25.70;;
16401;SDS011;8310;44.626;11.176;2023-03-03T01:49:00;34.78;;;22.45;;
16401;SDS011;8310;44.626;11.176;2023-03-03T01:51:34;36.20;;;23.95;;
16401;SDS011;8310;44.626;11.176;2023-03-03T01:54:05;32.63;;;23.17;;
16401;SDS011;8310;44.626;11.176;2023-03-03T01:56:37;32.17;;;22.90;;
16401;SDS011;8310;44.626;11.176;2023-03-03T01:59:06;35.47;;;24.48;;
16401;SDS011;8310;44.626;11.176;2023-03-03T02:01:38;35.53;;;23.73;;
16401;SDS011;8310;44.626;11.176;2023-03-03T02:04:07;34.58;;;23.35;;
16401;SDS011;8310;44.626;11.176;2023-03-03T02:06:37;34.28;;;23.17;;
16401;SDS011;8310;44.626;11.176;2023-03-03T02:09:10;33.33;;;21.58;;
16401;SDS011;8310;44.626;11.176;2023-03-03T02:11:43;32.60;;;22.13;;
16401;SDS011;8310;44.626;11.176;2023-03-03T02:14:12;39.63;;;23.67;;
16401;SDS011;8310;44.626;11.176;2023-03-03T02:16:40;33.17;;;21.63;;
16401;SDS011;8310;44.626;11.176;2023-03-03T02:19:09;31.58;;;21.85;;
16401;SDS011;8310;44.626;11.176;2023-03-03T02:21:46;32.10;;;21.85;;
16401;SDS011;8310;44.626;11.176;2023-03-03T02:24:15;32.35;;;22.52;;
16401;SDS011;8310;44.626;11.176;2023-03-03T02:26:49;31.58;;;21.55;;
16401;SDS011;8310;44.626;11.176;2023-03-03T02:29:16;31.17;;;21.25;;
16401;SDS011;8310;44.626;11.176;2023-03-03T02:31:44;30.65;;;22.40;;
16401;SDS011;8310;44.626;11.176;2023-03-03T02:34:12;29.23;;;20.98;;
16401;SDS011;8310;44.626;11.176;2023-03-03T02:36:40;28.75;;;21.23;;
16401;SDS011;8310;44.626;11.176;2023-03-03T02:39:08;33.17;;;23.55;;
16401;SDS011;8310;44.626;11.176;2023-03-03T02:41:43;30.33;;;21.45;;
16401;SDS011;8310;44.626;11.176;2023-03-03T02:44:17;28.80;;;20.45;;
16401;SDS011;8310;44.626;11.176;2023-03-03T02:46:46;29.55;;;22.17;;
16401;SDS011;8310;44.626;11.176;2023-03-03T02:49:15;30.88;;;21.63;;
16401;SDS011;8310;44.626;11.176;2023-03-03T02:51:44;33.45;;;22.45;;
16401;SDS011;8310;44.626;11.176;2023-03-03T02:54:12;34.10;;;22.83;;
16401;SDS011;8310;44.626;11.176;2023-03-03T02:56:41;37.22;;;23.70;;
16401;SDS011;8310;44.626;11.176;2023-03-03T02:59:09;36.65;;;23.67;;
16401;SDS011;8310;44.626;11.176;2023-03-03T03:01:39;36.10;;;22.55;;
16401;SDS011;8310;44.626;11.176;2023-03-03T03:04:08;31.67;;;21.50;;
16401;SDS011;8310;44.626;11.176;2023-03-03T03:06:38;35.67;;;23.33;;
16401;SDS011;8310;44.626;11.176;2023-03-03T03:09:06;34.70;;;22.65;;
16401;SDS011;8310;44.626;11.176;2023-03-03T03:11:35;35.58;;;22.20;;
16401;SDS011;8310;44.626;11.176;2023-03-03T03:14:04;38.00;;;22.60;;
16401;SDS011;8310;44.626;11.176;2023-03-03T03:16:34;29.05;;;20.55;;
16401;SDS011;8310;44.626;11.176;2023-03-03T03:19:03;31.23;;;21.23;;
16401;SDS011;8310;44.626;11.176;2023-03-03T03:21:31;27.52;;;20.60;;
16401;SDS011;8310;44.626;11.176;2023-03-03T03:23:59;28.33;;;20.17;;
16401;SDS011;8310;44.626;11.176;2023-03-03T03:26:27;32.13;;;20.45;;
16401;SDS011;8310;44.626;11.176;2023-03-03T03:28:54;28.90;;;19.08;;
16401;SDS011;8310;44.626;11.176;2023-03-03T03:31:23;27.10;;;19.20;;
16401;SDS011;8310;44.626;11.176;2023-03-03T03:33:51;28.60;;;19.95;;
16401;SDS011;8310;44.626;11.176;2023-03-03T03:36:21;32.53;;;20.88;;
16401;SDS011;8310;44.626;11.176;2023-03-03T03:38:49;32.58;;;20.98;;
16401;SDS011;8310;44.626;11.176;2023-03-03T03:41:16;32.83;;;20.85;;
16401;SDS011;8310;44.626;11.176;2023-03-03T03:43:44;34.50;;;21.40;;
16401;SDS011;8310;44.626;11.176;2023-03-03T03:46:11;33.30;;;20.13;;
16401;SDS011;8310;44.626;11.176;2023-03-03T03:48:39;35.58;;;22.02;;
16401;SDS011;8310;44.626;11.176;2023-03-03T03:51:06;34.00;;;21.05;;
16401;SDS011;8310;44.626;11.176;2023-03-03T03:53:37;30.17;;;21.48;;
16401;SDS011;8310;44.626;11.176;2023-03-03T03:56:05;36.78;;;22.25;;
16401;SDS011;8310;44.626;11.176;2023-03-03T03:58:33;33.97;;;21.10;;
16401;SDS011;8310;44.626;11.176;2023-03-03T04:01:01;28.80;;;20.42;;
16401;SDS011;8310;44.626;11.176;2023-03-03T04:03:30;33.50;;;20.60;;
16401;SDS011;8310;44.626;11.176;2023-03-03T04:05:57;30.52;;;19.77;;
16401;SDS011;8310;44.626;11.176;2023-03-03T04:08:25;28.65;;;19.05;;
16401;SDS011;8310;44.626;11.176;2023-03-03T04:10:54;25.80;;;18.52;;
16401;SDS011;8310;44.626;11.176;2023-03-03T04:13:22;26.48;;;18.77;;
16401;SDS011;8310;44.626;11.176;2023-03-03T04:15:52;29.98;;;19.92;;
16401;SDS011;8310;44.626;11.176;2023-03-03T04:18:20;29.80;;;19.90;;
16401;SDS011;8310;44.626;11.176;2023-03-03T04:20:48;28.80;;;19.58;;
16401;SDS011;8310;44.626;11.176;2023-03-03T04:23:16;29.00;;;19.52;;
16401;SDS011;8310;44.626;11.176;2023-03-03T04:25:44;28.75;;;20.48;;
16401;SDS011;8310;44.626;11.176;2023-03-03T04:28:13;26.77;;;20.02;;
16401;SDS011;8310;44.626;11.176;2023-03-03T04:30:41;26.83;;;18.98;;
16401;SDS011;8310;44.626;11.176;2023-03-03T04:33:09;27.20;;;18.27;;
16401;SDS011;8310;44.626;11.176;2023-03-03T04:35:37;25.90;;;17.20;;
16401;SDS011;8310;44.626;11.176;2023-03-03T04:38:05;26.52;;;17.10;;
16401;SDS011;8310;44.626;11.176;2023-03-03T04:40:32;25.80;;;17.60;;
16401;SDS011;8310;44.626;11.176;2023-03-03T04:43:00;27.27;;;17.83;;
16401;SDS011;8310;44.626;11.176;2023-03-03T04:45:29;26.33;;;19.38;;
16401;SDS011;8310;44.626;11.176;2023-03-03T04:47:56;25.10;;;18.25;;
16401;SDS011;8310;44.626;11.176;2023-03-03T04:50:24;27.52;;;17.92;;
16401;SDS011;8310;44.626;11.176;2023-03-03T04:52:52;28.70;;;19.02;;
16401;SDS011;8310;44.626;11.176;2023-03-03T04:55:19;26.42;;;19.15;;
16401;SDS011;8310;44.626;11.176;2023-03-03T04:57:47;27.58;;;18.08;;
16401;SDS011;8310;44.626;11.176;2023-03-03T05:00:15;29.58;;;18.02;;
16401;SDS011;8310;44.626;11.176;2023-03-03T05:02:46;25.50;;;17.52;;
16401;SDS011;8310;44.626;11.176;2023-03-03T05:05:14;28.30;;;17.88;;
16401;SDS011;8310;44.626;11.176;2023-03-03T05:07:41;24.23;;;16.73;;
16401;SDS011;8310;44.626;11.176;2023-03-03T05:10:09;27.20;;;17.70;;
16401;SDS011;8310;44.626;11.176;2023-03-03T05:12:37;26.55;;;17.98;;
16401;SDS011;8310;44.626;11.176;2023-03-03T05:15:05;25.95;;;17.58;;
16401;SDS011;8310;44.626;11.176;2023-03-03T05:17:33;26.65;;;17.85;;
16401;SDS011;8310;44.626;11.176;2023-03-03T05:20:03;26.27;;;18.00;;
16401;SDS011;8310;44.626;11.176;2023-03-03T05:22:32;23.10;;;16.27;;
16401;SDS011;8310;44.626;11.176;2023-03-03T05:25:00;25.13;;;17.83;;
16401;SDS011;8310;44.626;11.176;2023-03-03T05:27:27;28.05;;;18.58;;
16401;SDS011;8310;44.626;11.176;2023-03-03T05:29:55;26.30;;;17.45;;
16401;SDS011;8310;44.626;11.176;2023-03-03T05:32:23;25.50;;;17.80;;
16401;SDS011;8310;44.626;11.176;2023-03-03T05:34:50;25.92;;;18.05;;
16401;SDS011;8310;44.626;11.176;2023-03-03T05:37:19;26.20;;;17.98;;
16401;SDS011;8310;44.626;11.176;2023-03-03T05:39:48;25.73;;;17.20;;
16401;SDS011;8310;44.626;11.176;2023-03-03T05:42:16;28.25;;;18.10;;
16401;SDS011;8310;44.626;11.176;2023-03-03T05:44:43;26.92;;;17.50;;
16401;SDS011;8310;44.626;11.176;2023-03-03T05:47:11;22.40;;;16.35;;
16401;SDS011;8310;44.626;11.176;2023-03-03T05:49:39;24.00;;;16.05;;
16401;SDS011;8310;44.626;11.176;2023-03-03T05:52:06;23.55;;;17.30;;
16401;SDS011;8310;44.626;11.176;2023-03-03T05:54:35;23.10;;;16.40;;
16401;SDS011;8310;44.626;11.176;2023-03-03T05:57:03;25.48;;;16.70;;
16401;SDS011;8310;44.626;11.176;2023-03-03T05:59:31;23.38;;;15.85;;
16401;SDS011;8310;44.626;11.176;2023-03-03T06:01:58;24.77;;;16.55;;
16401;SDS011;8310;44.626;11.176;2023-03-03T06:04:26;26.25;;;16.13;;
16401;SDS011;8310;44.626;11.176;2023-03-03T06:06:56;22.15;;;16.17;;
16401;SDS011;8310;44.626;11.176;2023-03-03T06:09:23;24.70;;;16.45;;
16401;SDS011;8310;44.626;11.176;2023-03-03T06:11:53;25.83;;;17.17;;
16401;SDS011;8310;44.626;11.176;2023-03-03T06:14:21;23.77;;;16.25;;
16401;SDS011;8310;44.626;11.176;2023-03-03T06:16:49;24.20;;;16.70;;
16401;SDS011;8310;44.626;11.176;2023-03-03T06:19:17;22.77;;;16.15;;
16401;SDS011;8310;44.626;11.176;2023-03-03T06:21:45;22.92;;;15.90;;
16401;SDS011;8310;44.626;11.176;2023-03-03T06:24:12;24.05;;;17.08;;
16401;SDS011;8310;44.626;11.176;2023-03-03T06:26:39;24.08;;;15.38;;
16401;SDS011;8310;44.626;11.176;2023-03-03T06:29:08;21.13;;;15.75;;
16401;SDS011;8310;44.626;11.176;2023-03-03T06:31:36;21.17;;;15.30;;
16401;SDS011;8310;44.626;11.176;2023-03-03T06:34:04;26.08;;;16.55;;
16401;SDS011;8310;44.626;11.176;2023-03-03T06:36:31;21.85;;;15.25;;
16401;SDS011;8310;44.626;11.176;2023-03-03T06:38:58;21.00;;;14.98;;
16401;SDS011;8310;44.626;11.176;2023-03-03T06:41:26;27.98;;;16.73;;
16401;SDS011;8310;44.626;11.176;2023-03-03T06:43:54;23.30;;;16.20;;
16401;SDS011;8310;44.626;11.176;2023-03-03T06:46:23;23.85;;;14.43;;
16401;SDS011;8310;44.626;11.176;2023-03-03T06:48:52;21.30;;;14.93;;
16401;SDS011;8310;44.626;11.176;2023-03-03T06:51:22;22.95;;;15.73;;
16401;SDS011;8310;44.626;11.176;2023-03-03T06:53:51;22.25;;;15.43;;
16401;SDS011;8310;44.626;11.176;2023-03-03T06:56:21;24.00;;;14.90;;
16401;SDS011;8310;44.626;11.176;2023-03-03T06:58:52;23.80;;;15.30;;
16401;SDS011;8310;44.626;11.176;2023-03-03T07:01:23;24.77;;;16.50;;
16401;SDS011;8310;44.626;11.176;2023-03-03T07:03:50;24.80;;;15.63;;
16401;SDS011;8310;44.626;11.176;2023-03-03T07:06:20;27.95;;;16.08;;
16401;SDS011;8310;44.626;11.176;2023-03-03T07:08:48;24.17;;;15.43;;
16401;SDS011;8310;44.626;11.176;2023-03-03T07:11:16;20.92;;;14.38;;
16401;SDS011;8310;44.626;11.176;2023-03-03T07:13:46;19.17;;;13.75;;
16401;SDS011;8310;44.626;11.176;2023-03-03T07:16:16;20.55;;;15.05;;
16401;SDS011;8310;44.626;11.176;2023-03-03T07:18:49;20.05;;;14.48;;
16401;SDS011;8310;44.626;11.176;2023-03-03T07:21:20;19.08;;;14.25;;
16401;SDS011;8310;44.626;11.176;2023-03-03T07:23:50;21.45;;;15.02;;
16401;SDS011;8310;44.626;11.176;2023-03-03T07:26:20;20.63;;;14.15;;
16401;SDS011;8310;44.626;11.176;2023-03-03T07:28:51;20.17;;;15.20;;
16401;SDS011;8310;44.626;11.176;2023-03-03T07:31:30;21.08;;;16.20;;
16401;SDS011;8310;44.626;11.176;2023-03-03T07:34:04;18.88;;;15.40;;
16401;SDS011;8310;44.626;11.176;2023-03-03T07:36:45;19.75;;;16.00;;
16401;SDS011;8310;44.626;11.176;2023-03-03T07:39:22;23.25;;;17.85;;
16401;SDS011;8310;44.626;11.176;2023-03-03T07:41:54;21.45;;;17.98;;
16401;SDS011;8310;44.626;11.176;2023-03-03T07:44:52;22.25;;;16.45;;
16401;SDS011;8310;44.626;11.176;2023-03-03T07:47:22;23.95;;;16.42;;
16401;SDS011;8310;44.626;11.176;2023-03-03T07:49:53;21.75;;;16.42;;
16401;SDS011;8310;44.626;11.176;2023-03-03T07:52:24;21.80;;;16.73;;
16401;SDS011;8310;44.626;11.176;2023-03-03T07:54:55;24.05;;;16.08;;
16401;SDS011;8310;44.626;11.176;2023-03-03T07:57:25;21.15;;;16.35;;
16401;SDS011;8310;44.626;11.176;2023-03-03T07:59:59;22.80;;;16.65;;
16401;SDS011;8310;44.626;11.176;2023-03-03T08:02:39;21.80;;;16.52;;
16401;SDS011;8310;44.626;11.176;2023-03-03T08:05:30;24.88;;;17.60;;
16401;SDS011;8310;44.626;11.176;2023-03-03T08:08:11;22.90;;;15.95;;
16401;SDS011;8310;44.626;11.176;2023-03-03T08:10:46;24.20;;;16.90;;
16401;SDS011;8310;44.626;11.176;2023-03-03T08:13:16;21.70;;;16.77;;
16401;SDS011;8310;44.626;11.176;2023-03-03T08:15:46;23.10;;;17.20;;
16401;SDS011;8310;44.626;11.176;2023-03-03T08:18:21;21.52;;;16.95;;
16401;SDS011;8310;44.626;11.176;2023-03-03T08:20:58;22.45;;;16.58;;
16401;SDS011;8310;44.626;11.176;2023-03-03T08:23:26;21.50;;;16.80;;
16401;SDS011;8310;44.626;11.176;2023-03-03T08:25:53;25.25;;;16.25;;
16401;SDS011;8310;44.626;11.176;2023-03-03T08:28:21;22.77;;;16.35;;
16401;SDS011;8310;44.626;11.176;2023-03-03T08:30:49;26.58;;;16.83;;
16401;SDS011;8310;44.626;11.176;2023-03-03T08:33:17;22.85;;;16.58;;
16401;SDS011;8310;44.626;11.176;2023-03-03T08:35:45;19.45;;;16.40;;
16401;SDS011;8310;44.626;11.176;2023-03-03T08:38:15;21.98;;;17.45;;
16401;SDS011;8310;44.626;11.176;2023-03-03T08:40:45;23.70;;;18.17;;
16401;SDS011;8310;44.626;11.176;2023-03-03T08:43:13;23.63;;;18.30;;
16401;SDS011;8310;44.626;11.176;2023-03-03T08:45:47;25.23;;;18.50;;
16401;SDS011;8310;44.626;11.176;2023-03-03T08:48:16;24.15;;;17.80;;
16401;SDS011;8310;44.626;11.176;2023-03-03T08:50:43;25.45;;;18.55;;
16401;SDS011;8310;44.626;11.176;2023-03-03T08:53:11;25.52;;;17.58;;
16401;SDS011;8310;44.626;11.176;2023-03-03T08:55:41;24.92;;;18.67;;
16401;SDS011;8310;44.626;11.176;2023-03-03T08:58:09;23.20;;;17.90;;
16401;SDS011;8310;44.626;11.176;2023-03-03T09:00:37;25.63;;;18.77;;
16401;SDS011;8310;44.626;11.176;2023-03-03T09:03:04;27.40;;;19.90;;
16401;SDS011;8310;44.626;11.176;2023-03-03T09:05:33;32.80;;;20.02;;
16401;SDS011;8310;44.626;11.176;2023-03-03T09:08:01;28.38;;;19.58;;
16401;SDS011;8310;44.626;11.176;2023-03-03T09:10:30;28.55;;;20.25;;
16401;SDS011;8310;44.626;11.176;2023-03-03T09:13:01;27.63;;;19.85;;
16401;SDS011;8310;44.626;11.176;2023-03-03T09:15:33;31.58;;;20.33;;
16401;SDS011;8310;44.626;11.176;2023-03-03T09:18:12;28.48;;;20.85;;
16401;SDS011;8310;44.626;11.176;2023-03-03T09:20:42;29.77;;;22.52;;
16401;SDS011;8310;44.626;11.176;2023-03-03T09:23:23;30.48;;;23.35;;
16401;SDS011;8310;44.626;11.176;2023-03-03T09:28:52;33.30;;;24.27;;
16401;SDS011;8310;44.626;11.176;2023-03-03T09:31:25;32.58;;;23.80;;
16401;SDS011;8310;44.626;11.176;2023-03-03T09:33:53;32.60;;;23.83;;
16401;SDS011;8310;44.626;11.176;2023-03-03T09:36:24;36.13;;;24.90;;
16401;SDS011;8310;44.626;11.176;2023-03-03T09:38:53;40.88;;;26.45;;
16401;SDS011;8310;44.626;11.176;2023-03-03T09:41:25;32.20;;;23.92;;
16401;SDS011;8310;44.626;11.176;2023-03-03T09:47:13;37.17;;;25.52;;
16401;SDS011;8310;44.626;11.176;2023-03-03T09:49:55;42.45;;;29.00;;
16401;SDS011;8310;44.626;11.176;2023-03-03T09:52:31;41.88;;;29.80;;
16401;SDS011;8310;44.626;11.176;2023-03-03T09:55:10;48.00;;;32.33;;
16401;SDS011;8310;44.626;11.176;2023-03-03T09:57:50;47.20;;;31.67;;
16401;SDS011;8310;44.626;11.176;2023-03-03T10:00:35;44.00;;;31.48;;
16401;SDS011;8310;44.626;11.176;2023-03-03T10:03:12;43.78;;;33.45;;
16401;SDS011;8310;44.626;11.176;2023-03-03T10:06:08;43.80;;;31.38;;
16401;SDS011;8310;44.626;11.176;2023-03-03T10:08:43;42.97;;;31.38;;
16401;SDS011;8310;44.626;11.176;2023-03-03T10:11:20;44.63;;;32.75;;
16401;SDS011;8310;44.626;11.176;2023-03-03T10:14:05;41.85;;;30.30;;
16401;SDS011;8310;44.626;11.176;2023-03-03T10:16:59;44.80;;;32.13;;
16401;SDS011;8310;44.626;11.176;2023-03-03T10:19:36;42.15;;;30.17;;
16401;SDS011;8310;44.626;11.176;2023-03-03T10:22:15;39.63;;;29.95;;
16401;SDS011;8310;44.626;11.176;2023-03-03T10:24:48;42.05;;;31.77;;
16401;SDS011;8310;44.626;11.176;2023-03-03T10:27:39;44.72;;;32.00;;
16401;SDS011;8310;44.626;11.176;2023-03-03T10:30:16;41.35;;;30.45;;
16401;SDS011;8310;44.626;11.176;2023-03-03T10:32:55;41.80;;;29.88;;
16401;SDS011;8310;44.626;11.176;2023-03-03T10:35:29;38.67;;;28.80;;
16401;SDS011;8310;44.626;11.176;2023-03-03T10:38:10;40.60;;;30.08;;
16401;SDS011;8310;44.626;11.176;2023-03-03T10:40:49;40.70;;;30.80;;
16401;SDS011;8310;44.626;11.176;2023-03-03T10:43:37;40.55;;;29.80;;
16401;SDS011;8310;44.626;11.176;2023-03-03T10:46:21;39.10;;;30.45;;
16401;SDS011;8310;44.626;11.176;2023-03-03T10:49:21;41.47;;;29.95;;
16401;SDS011;8310;44.626;11.176;2023-03-03T10:52:01;39.03;;;30.17;;
16401;SDS011;8310;44.626;11.176;2023-03-03T10:54:51;38.03;;;29.42;;
16401;SDS011;8310;44.626;11.176;2023-03-03T10:57:30;37.50;;;29.05;;
16401;SDS011;8310;44.626;11.176;2023-03-03T11:00:14;34.45;;;26.58;;
16401;SDS011;8310;44.626;11.176;2023-03-03T11:02:51;38.80;;;26.95;;
16401;SDS011;8310;44.626;11.176;2023-03-03T11:05:35;32.92;;;25.77;;
16401;SDS011;8310;44.626;11.176;2023-03-03T11:08:10;32.17;;;26.55;;
16401;SDS011;8310;44.626;11.176;2023-03-03T11:10:47;31.90;;;26.00;;
16401;SDS011;8310;44.626;11.176;2023-03-03T11:13:21;29.65;;;24.20;;
16401;SDS011;8310;44.626;11.176;2023-03-03T11:16:08;32.92;;;23.40;;
16401;SDS011;8310;44.626;11.176;2023-03-03T11:18:59;32.35;;;25.55;;
16401;SDS011;8310;44.626;11.176;2023-03-03T11:21:36;28.88;;;23.05;;
16401;SDS011;8310;44.626;11.176;2023-03-03T11:27:13;22.92;;;17.63;;
16401;SDS011;8310;44.626;11.176;2023-03-03T11:29:56;28.92;;;22.02;;
16401;SDS011;8310;44.626;11.176;2023-03-03T11:32:34;28.13;;;22.13;;
16401;SDS011;8310;44.626;11.176;2023-03-03T11:35:15;19.27;;;15.27;;
16401;SDS011;8310;44.626;11.176;2023-03-03T11:37:52;19.13;;;15.38;;
16401;SDS011;8310;44.626;11.176;2023-03-03T11:40:26;22.95;;;19.73;;
16401;SDS011;8310;44.626;11.176;2023-03-03T11:43:02;25.40;;;21.27;;
16401;SDS011;8310;44.626;11.176;2023-03-03T11:45:39;24.95;;;19.58;;
16401;SDS011;8310;44.626;11.176;2023-03-03T11:48:14;22.17;;;19.77;;
16401;SDS011;8310;44.626;11.176;2023-03-03T11:50:47;18.42;;;15.40;;
16401;SDS011;8310;44.626;11.176;2023-03-03T11:53:35;18.98;;;14.93;;
16401;SDS011;8310;44.626;11.176;2023-03-03T11:56:14;20.80;;;16.48;;
16401;SDS011;8310;44.626;11.176;2023-03-03T11:58:47;21.15;;;16.65;;
16401;SDS011;8310;44.626;11.176;2023-03-03T12:01:25;17.73;;;15.35;;
16401;SDS011;8310;44.626;11.176;2023-03-03T12:04:00;16.50;;;14.30;;
16401;SDS011;8310;44.626;11.176;2023-03-03T12:06:31;17.85;;;15.93;;
16401;SDS011;8310;44.626;11.176;2023-03-03T12:09:11;19.90;;;16.10;;
16401;SDS011;8310;44.626;11.176;2023-03-03T12:11:51;15.40;;;13.43;;
16401;SDS011;8310;44.626;11.176;2023-03-03T12:17:24;14.02;;;9.13;;
16401;SDS011;8310;44.626;11.176;2023-03-03T12:20:05;15.43;;;12.23;;
16401;SDS011;8310;44.626;11.176;2023-03-03T12:22:37;16.60;;;14.45;;
16401;SDS011;8310;44.626;11.176;2023-03-03T12:25:24;16.98;;;15.00;;
16401;SDS011;8310;44.626;11.176;2023-03-03T12:27:59;17.40;;;14.95;;
16401;SDS011;8310;44.626;11.176;2023-03-03T12:33:38;18.20;;;16.30;;
16401;SDS011;8310;44.626;11.176;2023-03-03T12:36:21;20.93;;;17.57;;
16401;SDS011;8310;44.626;11.176;2023-03-03T12:41:35;18.87;;;16.87;;
16401;SDS011;8310;44.626;11.176;2023-03-03T12:44:12;20.02;;;16.88;;
16401;SDS011;8310;44.626;11.176;2023-03-03T12:46:44;17.48;;;15.68;;
16401;SDS011;8310;44.626;11.176;2023-03-03T12:49:20;17.55;;;15.50;;
16401;SDS011;8310;44.626;11.176;2023-03-03T12:51:58;18.00;;;15.38;;
16401;SDS011;8310;44.626;11.176;2023-03-03T12:57:28;18.40;;;15.73;;
16401;SDS011;8310;44.626;11.176;2023-03-03T13:00:13;15.60;;;14.00;;
16401;SDS011;8310;44.626;11.176;2023-03-03T13:02:54;14.73;;;12.90;;
16401;SDS011;8310;44.626;11.176;2023-03-03T13:05:33;15.82;;;13.82;;
16401;SDS011;8310;44.626;11.176;2023-03-03T13:08:17;17.13;;;13.73;;
16401;SDS011;8310;44.626;11.176;2023-03-03T13:10:58;15.23;;;13.45;;
16401;SDS011;8310;44.626;11.176;2023-03-03T13:13:37;16.05;;;14.35;;
16401;SDS011;8310;44.626;11.176;2023-03-03T13:16:09;18.60;;;14.55;;
16401;SDS011;8310;44.626;11.176;2023-03-03T13:18:45;18.35;;;15.95;;
16401;SDS011;8310;44.626;11.176;2023-03-03T13:21:20;17.98;;;16.08;;
16401;SDS011;8310;44.626;11.176;2023-03-03T13:23:53;20.13;;;17.90;;
16401;SDS011;8310;44.626;11.176;2023-03-03T13:26:28;20.52;;;18.38;;
16401;SDS011;8310;44.626;11.176;2023-03-03T13:29:10;24.05;;;19.02;;
16401;SDS011;8310;44.626;11.176;2023-03-03T13:31:46;21.02;;;18.67;;
16401;SDS011;8310;44.626;11.176;2023-03-03T13:34:19;20.63;;;18.40;;
16401;SDS011;8310;44.626;11.176;2023-03-03T13:37:06;20.67;;;17.88;;
16401;SDS011;8310;44.626;11.176;2023-03-03T13:39:43;21.70;;;19.02;;
16401;SDS011;8310;44.626;11.176;2023-03-03T13:42:20;21.67;;;19.02;;
16401;SDS011;8310;44.626;11.176;2023-03-03T13:44:56;21.60;;;19.13;;
16401;SDS011;8310;44.626;11.176;2023-03-03T13:47:27;21.70;;;19.23;;
16401;SDS011;8310;44.626;11.176;2023-03-03T13:50:03;21.92;;;19.63;;
16401;SDS011;8310;44.626;11.176;2023-03-03T13:52:45;19.98;;;17.85;;
16401;SDS011;8310;44.626;11.176;2023-03-03T13:55:25;17.70;;;14.95;;
16401;SDS011;8310;44.626;11.176;2023-03-03T13:57:58;17.85;;;15.20;;
16401;SDS011;8310;44.626;11.176;2023-03-03T14:00:33;16.85;;;15.15;;
16401;SDS011;8310;44.626;11.176;2023-03-03T14:03:21;18.90;;;17.00;;
16401;SDS011;8310;44.626;11.176;2023-03-03T14:06:13;20.08;;;18.00;;
16401;SDS011;8310;44.626;11.176;2023-03-03T14:08:46;18.67;;;16.77;;
16401;SDS011;8310;44.626;11.176;2023-03-03T14:11:51;20.17;;;18.13;;
16401;SDS011;8310;44.626;11.176;2023-03-03T14:14:29;19.70;;;17.60;;
16401;SDS011;8310;44.626;11.176;2023-03-03T14:17:11;21.40;;;19.10;;
16401;SDS011;8310;44.626;11.176;2023-03-03T14:19:46;21.33;;;18.98;;
16401;SDS011;8310;44.626;11.176;2023-03-03T14:22:18;21.38;;;19.15;;
16401;SDS011;8310;44.626;11.176;2023-03-03T14:24:59;20.75;;;18.63;;
16401;SDS011;8310;44.626;11.176;2023-03-03T14:27:33;20.75;;;18.75;;
16401;SDS011;8310;44.626;11.176;2023-03-03T14:33:01;17.95;;;16.15;;
16401;SDS011;8310;44.626;11.176;2023-03-03T14:35:47;19.70;;;17.65;;
16401;SDS011;8310;44.626;11.176;2023-03-03T14:38:18;20.48;;;18.27;;
16401;SDS011;8310;44.626;11.176;2023-03-03T14:40:49;19.63;;;17.67;;
16401;SDS011;8310;44.626;11.176;2023-03-03T14:43:32;19.10;;;17.10;;
16401;SDS011;8310;44.626;11.176;2023-03-03T14:46:16;19.45;;;17.33;;
16401;SDS011;8310;44.626;11.176;2023-03-03T14:49:06;18.75;;;16.75;;
16401;SDS011;8310;44.626;11.176;2023-03-03T14:51:42;19.80;;;17.70;;
16401;SDS011;8310;44.626;11.176;2023-03-03T14:54:18;20.58;;;16.95;;
16401;SDS011;8310;44.626;11.176;2023-03-03T14:56:57;17.58;;;15.73;;
16401;SDS011;8310;44.626;11.176;2023-03-03T14:59:26;17.15;;;15.35;;
16401;SDS011;8310;44.626;11.176;2023-03-03T15:01:56;18.55;;;15.68;;
16401;SDS011;8310;44.626;11.176;2023-03-03T15:04:33;19.25;;;16.60;;
16401;SDS011;8310;44.626;11.176;2023-03-03T15:07:05;18.23;;;16.40;;
16401;SDS011;8310;44.626;11.176;2023-03-03T15:09:47;17.70;;;15.90;;
16401;SDS011;8310;44.626;11.176;2023-03-03T15:12:16;17.48;;;15.40;;
16401;SDS011;8310;44.626;11.176;2023-03-03T15:14:47;18.38;;;16.48;;
16401;SDS011;8310;44.626;11.176;2023-03-03T15:17:18;18.88;;;16.98;;
16401;SDS011;8310;44.626;11.176;2023-03-03T15:19:55;17.48;;;15.80;;